Fort Albany, Canada
Current Conditions -  °F | °C
As of 1:00 PM on Saturday 22 Nov 2014 (Local Time) from CYMO Reporting Station
Overcast Overcast  
Wind Chill: 19°   Ceiling: 2300
Heat Index: 28°   Visibility: 9mi
Dew Point: 25°   Wind: 10mph
Humidity: 86%   Direction: 280°W
Pressure: 29.5"   Gusts: 17mph
Location:  52.25°N, 81.62°W
Report Text: CYMO 221800Z AUTO 28009G15KT 9SM SCT015 BKN023 OVC029 M02/M04 A2950 RMK SLP991
Loading
Personal Weather Stations






























Interactive Weather Map New forecast layout! Learn more

10-Day Weather Forecast

Advertisements
Track Severe Weather on mobile